Current Month

Pierce College

Hourly Data | America/Los_Angeles
as of 5/7/21 12:20 PM PDT
Date & Time Temp Max (°F) Temp Min (°F) RH (%) Dew Pt (°F) Latest Rain (In) Soil Temp (°F) Soil Moist (%) Wind Spd (mph) Wind Dir (°) Wind Gust (mph) Leaf Wet Raw (mV) Net Radiation (W/m²) Evap Pan Max Wind (mph) Evap Pan H2O Max Temp (°F) Evap Pan Level (In)
5/7/21 - 1100 69.9 66.3 53 50.0 0.00 75.2 30.2 1.9 NE | 38 6.6 266 581 4.7 118.3 3.7
5/7/21 - 1000 66.3 62.5 60 49.6 0.00 75.0 30.3 2.1 ESE | 114 6.8 266 305 5.9 91.7 3.7
5/7/21 - 0900 62.7 61.3 64 49.6 0.00 75.2 30.4 1.7 ENE | 60 6.5 268 168 3.0 78.4 3.7
5/7/21 - 0800 61.7 59.2 68 49.7 0.00 75.8 30.4 1.1 SSE | 162 4.4 269 106 4.2 73.1 3.7
5/7/21 - 0700 59.3 56.5 74 49.4 0.00 77.3 30.5 1.1 S | 180 3.4 270 53 2.4 68.1 3.7
5/7/21 - 0600 56.7 56.1 79 49.9 0.00 77.5 30.5 2.2 S | 189 5.9 271 -6 4.1 60.6 3.7
5/7/21 - 0500 56.8 56.0 80 50.3 0.00 78.1 30.5 1.0 E | 96 3.7 272 -13 2.8 60.4 3.7
5/7/21 - 0400 56.6 55.9 81 50.4 0.00 78.6 30.6 1.2 ENE | 71 3.7 272 -13 1.9 60.3 3.7
5/7/21 - 0300 56.1 55.5 82 50.4 0.00 78.3 30.6 1.3 SE | 140 5.0 272 -13 3.2 59.8 3.7
5/7/21 - 0200 55.8 55.1 83 50.4 0.00 78.2 30.6 1.7 S | 177 4.1 272 -13 3.0 59.3 3.7
5/7/21 - 0100 56.1 55.5 84 50.8 0.00 77.9 30.6 1.4 SSE | 161 4.0 272 -13 2.7 59.3 3.7
5/7/21 - 0000 56.7 55.6 83 51.0 0.00 76.2 30.6 1.4 E | 100 4.6 272 -14 2.6 60.6 3.7
5/6/21 - 2300 56.8 55.1 81 50.4 0.00 76.2 30.7 1.1 ESE | 106 4.1 272 -14 3.6 61.7 3.7
5/6/21 - 2200 55.8 54.7 82 49.8 0.00 76.5 30.7 0.2 SE | 126 1.9 272 -53 0.9 53.5 3.7
5/6/21 - 2100 56.9 55.5 80 49.9 0.00 76.4 30.7 1.6 S | 184 3.5 268 -71 3.3 54.7 3.7
5/6/21 - 2000 60.3 56.6 74 50.2 0.00 76.5 30.8 1.3 SSE | 151 3.9 269 -75 2.5 59.3 3.7
5/6/21 - 1900 66.3 60.3 66 51.1 0.00 76.2 30.7 1.5 NNE | 33 4.8 269 -71 2.1 69.4 3.7
5/6/21 - 1800 73.5 66.0 54 52.2 0.00 76.1 30.7 2.3 NE | 38 6.1 267 23 2.3 78.9 3.8
5/6/21 - 1700 76.0 73.2 44 51.3 0.00 75.7 30.7 3.3 SSE | 167 9.4 266 182 5.6 85.3 3.8
5/6/21 - 1600 81.6 75.7 39 52.2 0.00 75.2 30.6 3.2 SSE | 150 9.6 266 325 7.3 92.5 3.8
5/6/21 - 1500 83.1 79.9 37 52.9 0.00 75.0 30.5 3.2 SE | 129 7.1 266 444 4.7 98.0 3.8
5/6/21 - 1400 84.2 82.1 36 53.2 0.00 74.4 30.5 2.9 ENE | 61 6.9 266 527 4.0 109.1 3.8
5/6/21 - 1300 83.7 79.4 34 50.4 0.00 74.3 30.4 2.0 NE | 44 6.9 264 578 4.9 121.8 3.8
5/6/21 - 1200 81.0 74.6 38 50.8 0.00 74.1 30.3 1.6 NNE | 14 4.7 264 595 4.1 124.9 3.7
5/6/21 - 1100 74.8 69.0 51 52.4 0.00 74.1 30.3 1.3 NNE | 14 4.0 265 568 3.5 118.6 3.8
5/6/21 - 1000 69.1 62.9 63 52.9 0.00 74.1 30.4 1.4 N | 8 5.0 266 493 3.9 97.9 3.8
5/6/21 - 0900 63.9 57.9 76 52.7 0.00 74.3 30.5 1.3 NNE | 18 3.9 267 243 2.9 85.9 3.7
5/6/21 - 0800 58.0 56.3 85 52.6 0.00 72.5 30.6 1.2 E | 79 4.1 277 82 2.0 66.2 3.7
5/6/21 - 0700 56.6 55.0 89 52.6 0.00 74.8 30.6 0.9 NE | 44 3.6 328 44 1.5 64.0 3.7
5/6/21 - 0600 55.1 52.6 91 50.9 0.00 75.1 30.6 0.5 NE | 43 2.9 334 7 0.1 56.6 3.7
5/6/21 - 0500 53.4 52.4 90 50.0 0.00 75.4 30.7 0.1 S | 175 0.8 344 -19 0.2 44.8 3.7
5/6/21 - 0400 54.2 52.7 89 50.4 0.00 73.3 30.7 0.1 SSE | 165 0.9 324 -23 0.3 47.5 3.7
5/6/21 - 0300 54.8 53.7 89 51.0 0.00 76.0 30.8 0.4 S | 170 1.4 300 -28 0.7 49.1 3.7
5/6/21 - 0200 56.3 54.6 86 51.3 0.00 76.1 30.9 0.5 S | 187 1.8 271 -44 1.1 52.0 3.7
5/6/21 - 0100 58.0 56.0 82 51.5 0.00 76.3 30.9 0.3 E | 95 2.1 254 -64 1.3 55.4 3.7
5/6/21 - 0000 59.2 57.8 79 52.0 0.00 76.4 30.9 0.8 ENE | 63 3.0 272 -69 1.7 55.4 3.7
5/5/21 - 2300 61.0 58.6 75 51.4 0.00 76.6 30.9 0.3 ENE | 73 2.2 271 -71 1.7 56.8 3.7
5/5/21 - 2200 63.2 60.8 70 51.9 0.00 76.6 31.0 0.9 E | 96 3.1 269 -75 2.0 60.0 3.7
5/5/21 - 2100 66.4 62.8 64 52.2 0.00 76.5 30.9 1.2 ENE | 63 3.3 268 -79 2.1 64.5 3.7
5/5/21 - 2000 73.5 66.4 55 53.0 0.00 76.4 30.9 1.8 NE | 41 3.7 267 -86 1.9 71.5 3.7
5/5/21 - 1900 84.2 73.5 40 50.6 0.00 76.4 30.9 1.2 NE | 44 3.4 266 -83 1.9 81.8 3.8
5/5/21 - 1800 87.0 84.1 15 33.2 0.00 75.8 30.8 2.8 WSW | 258 8.9 263 -4 6.1 90.8 3.8
5/5/21 - 1700 90.1 87.0 17 38.5 0.00 75.8 30.7 4.4 WSW | 245 10.1 262 140 7.2 95.2 3.8
5/5/21 - 1600 94.2 88.7 16 39.7 0.00 75.0 30.7 3.1 WNW | 282 9.9 262 277 6.9 103.2 3.8
5/5/21 - 1500 94.6 92.8 18 43.6 0.00 74.5 30.6 1.9 NW | 326 7.7 263 433 6.1 109.9 3.8
5/5/21 - 1400 94.3 89.8 21 46.2 0.00 74.4 30.5 2.5 NE | 53 6.9 263 511 3.5 113.3 3.8
5/5/21 - 1300 92.0 89.7 22 47.0 0.00 73.7 30.5 2.5 ENE | 66 7.0 264 570 5.1 129.4 3.8
5/5/21 - 1200 90.5 86.7 25 47.8 0.00 73.1 30.4 1.7 N | 6 5.9 263 584 5.7 135.2 3.8
5/5/21 - 1100 87.0 82.0 29 49.7 0.00 73.2 30.4 1.5 N | 5 4.9 263 553 4.4 132.2 3.8
5/5/21 - 1000 82.7 77.5 35 50.4 0.00 73.2 30.4 1.2 NNE | 31 4.1 263 487 3.8 112.7 3.7
5/5/21 - 0900 77.5 70.7 42 49.6 0.00 73.4 30.5 1.1 NNE | 19 3.8 264 385 2.3 109.2 3.8
5/5/21 - 0800 70.7 62.1 62 51.6 0.00 73.6 30.6 0.7 NNE | 18 2.3 266 180 1.4 93.9 3.7
5/5/21 - 0700 62.2 55.9 76 52.0 0.00 74.2 30.7 0.7 NW | 317 3.0 270 21 1.6 59.7 3.7
5/5/21 - 0600 56.0 53.8 87 50.8 0.00 74.3 30.7 0.2 SSE | 159 1.1 303 -3 0.0 48.5 3.7
5/5/21 - 0500 54.8 53.8 86 50.2 0.00 74.4 30.8 0.3 SSE | 164 2.1 297 -25 0.0 46.8 3.7
5/5/21 - 0400 55.4 53.6 85 50.2 0.00 74.6 30.8 0.6 S | 170 2.2 269 -30 1.1 46.8 3.7
5/5/21 - 0300 56.7 55.0 84 50.9 0.00 75.0 30.9 0.1 SSE | 166 1.1 258 -41 0.0 48.1 3.7
5/5/21 - 0200 57.5 56.2 81 51.0 0.00 75.3 30.9 0.5 SSE | 166 1.5 250 -56 0.8 49.2 3.7
5/5/21 - 0100 59.7 56.9 78 51.8 0.00 75.4 30.9 0.4 S | 174 1.4 270 -62 0.0 51.4 3.7
5/5/21 - 0000 62.7 59.5 73 52.2 0.00 75.4 31.0 0.4 SSE | 167 2.4 267 -67 0.1 55.8 3.7
5/4/21 - 2300 65.3 62.4 67 52.5 0.00 75.4 30.9 0.4 ENE | 64 3.0 269 -75 1.8 55.7 3.7
5/4/21 - 2200 67.3 64.7 41 41.0 0.00 75.8 31.0 0.3 SSE | 159 1.8 267 -74 1.2 58.9 3.7
5/4/21 - 2100 72.9 67.1 30 36.9 0.00 75.5 31.0 0.8 SSE | 166 3.9 264 -82 2.8 65.2 3.7
5/4/21 - 2000 76.5 72.3 26 37.0 0.00 75.4 31.0 2.5 SW | 220 6.4 264 -91 4.9 73.2 3.7
5/4/21 - 1900 83.2 76.4 22 37.4 0.00 75.1 30.9 3.7 WSW | 247 8.7 264 -88 5.4 83.7 3.8
5/4/21 - 1800 86.1 83.0 19 38.7 0.00 74.9 30.9 3.4 WSW | 245 8.3 263 11 5.3 92.2 3.8
5/4/21 - 1700 89.2 85.8 21 42.9 0.00 74.5 30.8 5.4 WSW | 244 10.4 263 170 8.7 100.2 3.8
5/4/21 - 1600 91.8 89.1 15 36.7 0.00 74.1 30.7 4.7 SW | 220 9.4 263 315 6.9 102.2 3.8
5/4/21 - 1500 92.3 90.7 15 37.0 0.00 73.4 30.7 3.8 SSE | 168 8.5 262 435 6.4 105.2 3.8
5/4/21 - 1400 92.2 89.7 22 47.2 0.00 72.8 30.6 2.6 ENE | 65 6.8 264 516 3.7 114.5 3.8
5/4/21 - 1300 91.0 87.1 26 49.4 0.00 72.7 30.5 2.4 NNE | 32 5.8 263 569 4.0 131.6 3.8
5/4/21 - 1200 88.8 84.0 27 48.1 0.00 72.4 30.5 1.6 N | 8 6.6 263 587 5.6 137.5 3.8
5/4/21 - 1100 84.6 78.1 30 46.8 0.00 72.2 30.5 1.7 ENE | 59 5.4 263 556 3.1 135.3 3.7
5/4/21 - 1000 79.1 73.4 36 47.7 0.00 72.2 30.5 1.5 NE | 40 4.5 263 488 3.5 112.1 3.7
5/4/21 - 0900 73.4 67.8 49 50.2 0.00 72.3 30.5 1.2 NNE | 28 4.6 264 385 2.4 109.2 3.7
5/4/21 - 0800 67.9 59.3 66 50.7 0.00 72.7 30.7 1.0 NNW | 334 2.8 266 192 2.7 92.2 3.7
5/4/21 - 0700 59.4 52.9 80 50.2 0.00 72.9 30.7 0.3 N | 2 3.0 306 32 2.0 57.6 3.7
5/4/21 - 0600 52.9 50.6 89 48.3 0.00 73.3 30.8 0.3 SSE | 158 1.4 335 -0 0.0 46.7 3.7
5/4/21 - 0500 52.0 50.9 88 48.2 0.00 73.6 30.8 0.3 SSE | 155 1.1 331 -21 0.0 42.2 3.7
5/4/21 - 0400 52.5 51.4 87 48.3 0.00 73.5 30.9 0.3 SSE | 157 1.1 306 -26 0.0 44.0 3.7
5/4/21 - 0300 52.9 51.9 85 48.0 0.00 74.1 31.0 0.4 SSE | 162 1.7 280 -38 1.2 44.4 3.7
5/4/21 - 0200 53.8 52.8 83 48.4 0.00 74.2 31.0 0.4 SSE | 156 1.4 264 -54 0.6 46.0 3.7
5/4/21 - 0100 56.8 53.4 78 48.3 0.00 74.4 31.0 0.7 S | 180 2.5 270 -66 1.1 50.0 3.7
5/4/21 - 0000 60.2 56.3 71 49.2 0.00 74.4 31.0 0.5 E | 96 2.6 271 -73 2.0 56.3 3.7
5/3/21 - 2300 61.8 60.0 67 49.9 0.00 74.4 31.1 0.9 NE | 42 4.8 269 -76 1.5 58.3 3.7
5/3/21 - 2200 65.5 61.6 60 49.4 0.00 74.6 31.1 1.1 ENE | 65 4.2 268 -77 2.1 60.7 3.7
5/3/21 - 2100 67.3 64.9 55 49.6 0.00 74.9 31.1 0.6 ENE | 72 2.7 267 -76 0.9 61.3 3.7
5/3/21 - 2000 73.2 66.5 48 48.9 0.00 74.8 31.1 0.5 SE | 131 4.4 266 -81 2.8 70.2 3.7
5/3/21 - 1900 79.7 73.2 26 39.0 0.00 74.5 31.0 1.8 NW | 306 8.1 264 -81 5.7 80.5 3.8
5/3/21 - 1800 81.2 79.6 20 35.7 0.00 74.3 31.0 5.2 WSW | 252 12.4 263 19 9.4 87.0 3.8
5/3/21 - 1700 84.7 80.8 19 35.9 0.00 74.0 31.0 6.4 WSW | 252 12.2 263 176 8.6 93.0 3.8
5/3/21 - 1600 86.1 83.1 19 37.4 0.00 73.4 30.9 6.6 WSW | 251 14.8 263 321 9.4 98.0 3.8
5/3/21 - 1500 87.8 84.1 20 39.9 0.00 73.0 30.8 4.7 WNW | 282 13.5 263 443 10.8 105.5 3.8
5/3/21 - 1400 88.6 85.7 20 41.8 0.00 72.6 30.7 3.3 WNW | 297 11.7 263 527 9.8 113.5 3.8
5/3/21 - 1300 89.9 86.2 16 36.2 0.00 71.7 30.6 2.6 NW | 325 9.9 262 571 7.7 125.0 3.8
5/3/21 - 1200 87.9 84.3 14 30.7 0.00 71.7 30.6 2.9 NNE | 22 8.6 262 586 6.1 137.4 3.8
5/3/21 - 1100 85.9 82.0 19 36.9 0.00 71.4 30.6 2.7 NE | 38 8.5 262 551 8.8 133.3 3.7
5/3/21 - 1000 82.7 74.0 28 42.0 0.00 71.6 30.6 1.8 NNE | 17 5.8 263 487 4.3 110.9 3.7
5/3/21 - 0900 74.6 64.3 47 48.1 0.00 71.6 30.7 0.9 N | 1 3.3 264 385 2.7 106.5 3.7
5/3/21 - 0800 64.3 57.4 66 48.3 0.00 71.8 30.8 0.7 NNW | 337 3.7 266 182 2.6 87.3 3.7
5/3/21 - 0700 57.6 53.0 76 48.0 0.00 72.2 30.9 0.5 NE | 53 2.3 271 27 0.8 55.4 3.7
5/3/21 - 0600 53.2 49.3 88 46.9 0.00 72.7 31.0 0.7 S | 189 4.1 280 -6 2.8 48.7 3.7
5/3/21 - 0500 50.2 49.3 86 45.9 0.00 72.8 31.0 0.3 SSE | 162 1.4 284 -28 0.8 42.8 3.7
5/3/21 - 0400 50.8 49.8 84 45.4 0.00 73.0 31.0 0.3 S | 175 1.6 262 -40 0.9 43.5 3.7
5/3/21 - 0300 51.6 50.0 82 45.4 0.00 73.2 31.1 0.2 SSE | 150 1.2 256 -51 0.0 44.1 3.7
5/3/21 - 0200 52.0 50.7 79 45.2 0.00 73.4 31.1 0.4 S | 179 2.3 273 -56 1.2 45.3 3.7
5/3/21 - 0100 53.4 51.6 75 45.0 0.00 73.8 31.2 1.1 SSW | 196 2.6 271 -57 1.8 46.6 3.7
5/3/21 - 0000 54.8 52.8 72 45.3 0.00 74.0 31.2 1.2 S | 169 4.6 271 -60 2.7 48.7 3.7
5/2/21 - 2300 55.5 53.6 71 45.4 0.00 74.0 31.3 0.8 S | 186 3.4 270 -62 2.1 47.5 3.7
5/2/21 - 2200 57.1 54.7 67 45.3 0.00 74.6 31.3 0.9 S | 173 3.6 269 -65 1.9 49.0 3.7
5/2/21 - 2100 58.7 56.3 64 45.5 0.00 74.3 31.3 0.7 S | 184 3.1 269 -68 1.7 53.0 3.7
5/2/21 - 2000 61.0 58.5 60 45.7 0.00 74.5 31.3 1.4 S | 177 3.1 268 -74 2.3 59.0 3.7
5/2/21 - 1900 67.0 60.9 54 46.1 0.00 74.7 31.3 3.0 S | 170 7.3 267 -71 5.6 68.2 3.7
5/2/21 - 1800 68.2 66.9 47 46.9 0.00 74.5 31.3 2.7 S | 188 7.2 266 24 4.6 73.0 3.8
5/2/21 - 1700 68.3 67.0 48 47.3 0.00 74.3 31.2 4.9 S | 180 9.8 266 180 7.2 76.6 3.8
5/2/21 - 1600 73.0 67.7 45 47.5 0.00 73.7 31.2 5.6 SSE | 165 10.2 266 329 8.3 84.4 3.8
5/2/21 - 1500 73.5 70.9 42 48.2 0.00 73.2 31.2 4.6 S | 182 10.1 266 463 7.4 92.6 3.8
5/2/21 - 1400 72.4 69.3 45 48.2 0.00 72.8 31.1 5.0 SSE | 155 11.9 266 560 7.5 96.8 3.8
5/2/21 - 1300 72.4 69.8 45 48.6 0.00 72.6 31.0 4.6 S | 172 12.6 266 602 7.9 111.3 3.8
5/2/21 - 1200 73.0 68.3 47 49.0 0.00 72.5 31.0 4.3 SE | 132 10.9 266 614 7.8 120.9 3.8
5/2/21 - 1100 72.4 69.2 44 47.7 0.00 72.3 31.0 2.1 NNE | 18 5.7 265 571 4.4 115.0 3.8
5/2/21 - 1000 70.1 63.8 49 47.4 0.00 72.3 31.0 1.6 NE | 46 5.1 265 498 3.3 97.3 3.8
5/2/21 - 0900 65.4 61.6 58 47.8 0.00 72.2 31.2 1.3 SSE | 149 4.5 266 197 3.6 94.2 3.7
5/2/21 - 0800 62.8 58.7 66 48.9 0.00 72.6 31.1 2.3 WSW | 243 7.6 266 232 5.6 89.4 3.7
5/2/21 - 0700 59.0 57.6 73 49.6 0.00 72.8 31.2 2.4 SW | 227 4.6 270 43 3.5 64.2 3.7
5/2/21 - 0600 57.7 57.0 76 49.9 0.00 72.7 31.2 1.8 SSW | 199 4.5 271 -12 3.0 59.5 3.7
5/2/21 - 0500 57.7 57.1 77 50.2 0.00 73.0 31.3 2.1 SW | 227 4.5 271 -21 3.3 58.7 3.7
5/2/21 - 0400 57.3 56.9 79 50.6 0.00 73.1 31.3 1.6 SSE | 161 5.3 271 -13 4.0 58.9 3.7
5/2/21 - 0300 57.7 56.9 79 50.9 0.00 73.3 31.3 1.1 SSE | 163 4.0 271 -13 2.5 59.0 3.7
5/2/21 - 0200 57.6 57.0 79 51.0 0.00 73.5 31.4 1.4 SE | 139 4.2 271 -13 3.5 59.8 3.7
5/2/21 - 0100 57.4 56.9 80 51.0 0.00 73.5 31.4 2.0 SE | 126 5.1 271 -12 2.6 59.0 3.7
5/2/21 - 0000 57.1 56.0 81 50.8 0.00 73.9 31.4 1.2 ESE | 115 4.7 271 -34 2.5 57.8 3.7
5/1/21 - 2300 59.5 56.8 78 51.2 0.00 74.0 31.4 1.4 ENE | 62 3.4 272 -69 2.3 56.4 3.7
5/1/21 - 2200 60.4 59.3 72 50.8 0.00 74.4 31.4 0.8 ENE | 58 3.0 270 -70 1.2 54.7 3.7
5/1/21 - 2100 63.0 59.5 64 48.8 0.00 74.0 31.5 0.1 SE | 140 1.9 269 -70 1.1 57.6 3.7
5/1/21 - 2000 66.8 62.9 56 48.7 0.00 74.1 31.4 1.3 SSE | 163 3.9 267 -77 2.4 65.7 3.7
5/1/21 - 1900 72.0 66.8 43 46.0 0.00 73.6 31.4 1.6 NE | 49 3.8 266 -75 1.9 74.9 3.7
5/1/21 - 1800 77.0 71.8 36 46.2 0.00 73.9 31.4 1.7 NE | 34 6.2 265 25 4.2 81.0 3.8
5/1/21 - 1700 76.6 73.7 39 48.1 0.00 73.2 31.4 2.6 SSW | 201 6.7 264 137 4.3 87.0 3.8
5/1/21 - 1600 77.8 74.3 36 47.0 0.00 73.3 31.3 4.2 S | 189 9.8 264 175 6.8 92.4 3.8
5/1/21 - 1500 81.1 77.3 30 45.5 0.00 71.2 31.3 3.6 ESE | 104 9.2 264 374 6.5 97.4 3.8
5/1/21 - 1400 82.6 80.4 28 45.3 0.00 69.8 31.2 3.4 ENE | 59 10.2 264 475 8.2 105.9 3.8
5/1/21 - 1300 81.8 80.4 29 45.7 0.00 72.1 31.2 3.2 ENE | 57 7.6 263 540 3.8 113.6 3.8
5/1/21 - 1200 82.2 78.4 30 45.8 0.00 72.0 31.1 2.9 ENE | 60 8.7 263 546 5.4 120.0 3.8
5/1/21 - 1100 79.2 75.2 34 46.7 0.00 71.7 31.1 2.6 NE | 44 6.4 263 516 4.2 118.8 3.7
5/1/21 - 1000 75.3 71.2 39 47.3 0.00 71.6 31.2 2.3 NE | 52 5.7 263 413 2.7 102.7 3.8
5/1/21 - 0900 71.9 67.2 46 48.4 0.00 71.8 31.2 1.9 NE | 36 4.4 264 326 2.2 98.8 3.7
5/1/21 - 0800 67.2 62.8 56 49.1 0.00 72.2 31.3 0.9 NNE | 27 3.8 265 156 2.2 86.5 3.7
5/1/21 - 0700 62.8 56.6 68 49.0 0.00 70.9 31.3 0.3 E | 89 2.3 268 26 2.0 66.0 3.7
5/1/21 - 0600 56.8 54.5 74 47.4 0.00 70.7 31.4 0.2 SSE | 160 1.7 269 -31 0.0 51.8 3.7
5/1/21 - 0500 56.6 55.0 70 46.2 0.00 70.4 31.4 0.5 SSE | 167 2.1 270 -55 0.6 48.0 3.7
5/1/21 - 0400 57.7 55.4 67 45.6 0.00 71.2 31.5 0.4 SSE | 159 1.8 269 -54 0.8 48.1 3.7
5/1/21 - 0300 58.8 57.5 63 45.5 0.00 70.5 31.5 0.2 S | 169 1.2 268 -57 0.5 49.2 3.7
5/1/21 - 0200 60.2 58.6 59 45.2 0.00 71.2 31.5 0.2 SSE | 160 1.2 267 -58 0.0 50.3 3.7
5/1/21 - 0100 62.0 59.9 54 44.2 0.00 72.5 31.5 0.4 S | 169 1.8 266 -61 0.3 51.4 3.7
5/1/21 - 0000 63.5 61.8 43 40.2 0.00 73.5 31.6 0.4 SSE | 164 1.2 266 -64 0.6 54.3 3.7
Max 94.6 92.8 91 53.2 0.00 78.6 31.6 6.6 - 14.8 344 614 10.8 137.5 3.8
Avg 68.4 65.1 57 47.5 0.00 74.0 30.9 1.7 - 5.0 270 142 3.3 77.7 3.7
Min 50.2 49.3 14 30.7 0.00 69.8 30.2 0.1 - 0.8 250 -91 0.0 42.2 3.7
Total - - - - 0.00 - - - - - - - - - -